Time;durP1;ratioP1;P1;durP2;ratioP2;P2;SDS_P1;SDS_P2;PMS_P1;PMS_P2;Temp;Humidity;BMP_temperature;BMP_pressure;BME280_temperature;BME280_humidity;BME280_pressure;Samples;Min_cycle;Max_cycle;Signal;HPM_P1;HPM_P2
2021/11/26 00:02:29;;;;;;;15.53;6.53;;;;;;;;;;4885389;29;20450;-71
2021/11/26 00:04:58;;;;;;;14.25;5.78;;;;;;;;;;4886903;29;20147;-71
2021/11/26 00:07:28;;;;;;;14.90;6.53;;;;;;;;;;4900746;29;20103;-71
2021/11/26 00:09:57;;;;;;;13.52;6.47;;;;;;;;;;4883501;29;20057;-71
2021/11/26 00:12:25;;;;;;;14.50;5.88;;;;;;;;;;4902347;29;20130;-71
2021/11/26 00:15:07;;;;;;;15.27;5.47;;;;;;;;;;4885270;29;20155;-71
2021/11/26 00:17:45;;;;;;;13.98;6.57;;;;;;;;;;4902115;29;20064;-70
2021/11/26 00:20:14;;;;;;;17.73;5.68;;;;;;;;;;4899318;29;20145;-71
2021/11/26 00:22:44;;;;;;;17.10;6.93;;;;;;;;;;4883899;29;20490;-71
2021/11/26 00:25:14;;;;;;;14.45;6.60;;;;;;;;;;4885367;29;20418;-71
2021/11/26 00:27:43;;;;;;;16.73;7.10;;;;;;;;;;4901623;29;20065;-71
2021/11/26 00:30:12;;;;;;;14.73;6.18;;;;;;;;;;4897109;29;20058;-71
2021/11/26 00:32:40;;;;;;;18.80;6.68;;;;;;;;;;4898775;29;20079;-71
2021/11/26 00:35:09;;;;;;;17.00;5.22;;;;;;;;;;4899413;29;20061;-71
2021/11/26 00:37:38;;;;;;;22.27;7.43;;;;;;;;;;4899291;29;20068;-71
2021/11/26 00:40:10;;;;;;;19.27;6.23;;;;;;;;;;4884166;29;20088;-70
2021/11/26 00:42:41;;;;;;;17.92;5.03;;;;;;;;;;4900315;29;20417;-71
2021/11/26 00:45:10;;;;;;;17.17;7.28;;;;;;;;;;4898126;29;20069;-70
2021/11/26 00:47:39;;;;;;;14.57;5.35;;;;;;;;;;4901928;29;20063;-71
2021/11/26 00:50:08;;;;;;;15.60;6.43;;;;;;;;;;4898926;29;20155;-71
2021/11/26 00:52:37;;;;;;;14.47;5.87;;;;;;;;;;4898087;29;20133;-70
2021/11/26 00:55:06;;;;;;;18.15;7.18;;;;;;;;;;4898368;29;20069;-71
2021/11/26 00:57:37;;;;;;;12.18;6.03;;;;;;;;;;4884062;29;20064;-71
2021/11/26 01:00:08;;;;;;;16.73;7.25;;;;;;;;;;4897725;29;20098;-71
2021/11/26 01:02:38;;;;;;;16.88;6.65;;;;;;;;;;4901724;29;20095;-70
2021/11/26 01:05:07;;;;;;;14.07;5.63;;;;;;;;;;4899140;29;20086;-71
2021/11/26 01:07:36;;;;;;;14.25;7.05;;;;;;;;;;4899464;29;20074;-71
2021/11/26 01:10:05;;;;;;;15.48;5.97;;;;;;;;;;4901118;29;20068;-71
2021/11/26 01:12:34;;;;;;;11.65;5.82;;;;;;;;;;4902981;29;20072;-70
2021/11/26 01:15:05;;;;;;;12.27;5.97;;;;;;;;;;4900196;29;20063;-71
2021/11/26 01:17:36;;;;;;;19.23;7.13;;;;;;;;;;4899405;29;20445;-70
2021/11/26 01:20:06;;;;;;;14.45;6.10;;;;;;;;;;4898552;29;20493;-71
2021/11/26 01:22:35;;;;;;;15.25;6.32;;;;;;;;;;4884234;29;20070;-70
2021/11/26 01:25:05;;;;;;;16.40;5.93;;;;;;;;;;4899910;29;20063;-71
2021/11/26 01:27:34;;;;;;;17.13;6.95;;;;;;;;;;4899790;29;20068;-71
2021/11/26 01:30:09;;;;;;;14.27;5.47;;;;;;;;;;4898623;29;20067;-71
2021/11/26 01:32:40;;;;;;;12.27;5.85;;;;;;;;;;4898320;29;20088;-71
2021/11/26 01:35:09;;;;;;;17.35;5.88;;;;;;;;;;4880139;29;20128;-71
2021/11/26 01:37:38;;;;;;;14.85;6.45;;;;;;;;;;4900235;29;20147;-70
2021/11/26 01:40:08;;;;;;;17.85;6.18;;;;;;;;;;4880573;29;20558;-71
2021/11/26 01:42:37;;;;;;;19.27;5.70;;;;;;;;;;4884193;29;20075;-70
2021/11/26 01:45:06;;;;;;;14.00;5.05;;;;;;;;;;4879275;29;20067;-70
2021/11/26 01:47:35;;;;;;;17.80;5.45;;;;;;;;;;4880239;29;20098;-70
2021/11/26 01:50:06;;;;;;;15.32;6.07;;;;;;;;;;4877078;29;20070;-70
2021/11/26 01:52:35;;;;;;;13.70;6.35;;;;;;;;;;4897125;29;20084;-70
2021/11/26 01:55:04;;;;;;;14.50;7.00;;;;;;;;;;4899249;29;20062;-71
2021/11/26 01:57:33;;;;;;;16.20;7.18;;;;;;;;;;4900000;29;20417;-71
2021/11/26 02:00:02;;;;;;;17.98;6.68;;;;;;;;;;4882766;29;20506;-70
2021/11/26 02:02:33;;;;;;;17.00;5.63;;;;;;;;;;4900305;29;20088;-70
2021/11/26 02:05:02;;;;;;;14.68;7.30;;;;;;;;;;4901211;29;20070;-70
2021/11/26 02:07:32;;;;;;;18.77;6.47;;;;;;;;;;4881137;29;20067;-70
2021/11/26 02:10:01;;;;;;;16.58;6.28;;;;;;;;;;4883294;29;20074;-70
2021/11/26 02:12:30;;;;;;;17.05;8.02;;;;;;;;;;4882775;29;20081;-71
2021/11/26 02:15:00;;;;;;;17.48;6.15;;;;;;;;;;4901227;29;20505;-71
2021/11/26 02:17:29;;;;;;;16.42;6.65;;;;;;;;;;4900753;29;20063;-71
2021/11/26 02:20:00;;;;;;;15.87;6.47;;;;;;;;;;4880582;29;20066;-71
2021/11/26 02:22:32;;;;;;;17.55;7.57;;;;;;;;;;4880665;29;20404;-71
2021/11/26 02:25:01;;;;;;;17.05;6.85;;;;;;;;;;4899962;29;20061;-70
2021/11/26 02:27:29;;;;;;;19.55;6.70;;;;;;;;;;4885218;29;20061;-71
2021/11/26 02:29:58;;;;;;;17.80;6.97;;;;;;;;;;4898842;29;20057;-70
2021/11/26 02:32:27;;;;;;;14.47;7.07;;;;;;;;;;4881761;29;20082;-70
2021/11/26 02:34:55;;;;;;;14.63;7.15;;;;;;;;;;4900624;29;20056;-71
2021/11/26 02:37:26;;;;;;;16.75;6.30;;;;;;;;;;4900102;29;20072;-71
2021/11/26 02:39:55;;;;;;;14.38;6.63;;;;;;;;;;4899757;29;20085;-71
2021/11/26 02:42:25;;;;;;;13.18;5.80;;;;;;;;;;4880348;29;20106;-70
2021/11/26 02:44:54;;;;;;;15.87;6.67;;;;;;;;;;4898417;29;20058;-71
2021/11/26 02:47:22;;;;;;;16.60;7.32;;;;;;;;;;4897035;29;20083;-71
2021/11/26 02:49:51;;;;;;;16.52;6.18;;;;;;;;;;4896578;29;20155;-70
2021/11/26 02:52:19;;;;;;;12.25;5.32;;;;;;;;;;4898641;29;20153;-71
2021/11/26 02:54:52;;;;;;;13.65;5.68;;;;;;;;;;4898753;29;20064;-71
2021/11/26 02:57:21;;;;;;;13.63;6.67;;;;;;;;;;4897111;29;20063;-71
2021/11/26 02:59:51;;;;;;;15.18;7.18;;;;;;;;;;4878258;29;20531;-71
2021/11/26 03:02:20;;;;;;;15.10;6.50;;;;;;;;;;4901366;29;20059;-71
2021/11/26 03:07:43;;;;;;;14.50;5.78;;;;;;;;;;4884367;29;20086;-70
2021/11/26 03:10:16;;;;;;;16.00;5.87;;;;;;;;;;4887115;29;20164;-71
2021/11/26 03:12:45;;;;;;;16.45;6.68;;;;;;;;;;4902850;29;20074;-71
2021/11/26 03:15:14;;;;;;;17.35;6.25;;;;;;;;;;4883865;29;20053;-71
2021/11/26 03:17:44;;;;;;;22.83;7.32;;;;;;;;;;4900512;29;20574;-71
2021/11/26 03:20:13;;;;;;;13.60;5.95;;;;;;;;;;4884387;29;20065;-71
2021/11/26 03:22:41;;;;;;;13.97;6.07;;;;;;;;;;4867174;29;20072;-71
2021/11/26 03:25:11;;;;;;;16.90;6.05;;;;;;;;;;4903611;29;20141;-71
2021/11/26 03:27:42;;;;;;;19.35;8.00;;;;;;;;;;4901204;29;20387;-70
2021/11/26 03:30:11;;;;;;;15.15;5.97;;;;;;;;;;4900588;29;20145;-71
2021/11/26 03:32:40;;;;;;;17.60;7.07;;;;;;;;;;4885407;29;20068;-70
2021/11/26 03:35:09;;;;;;;15.67;6.20;;;;;;;;;;4887085;29;20060;-71
2021/11/26 03:37:38;;;;;;;18.38;7.43;;;;;;;;;;4880511;29;20065;-70
2021/11/26 03:40:08;;;;;;;16.83;6.68;;;;;;;;;;4902026;29;20108;-70
2021/11/26 03:42:38;;;;;;;18.90;7.65;;;;;;;;;;4885462;29;20078;-70
2021/11/26 03:45:09;;;;;;;22.58;7.97;;;;;;;;;;4887529;29;20096;-71
2021/11/26 03:47:38;;;;;;;17.93;5.80;;;;;;;;;;4884595;29;20079;-71
2021/11/26 03:50:08;;;;;;;18.48;7.38;;;;;;;;;;4899436;29;20089;-71
2021/11/26 03:52:37;;;;;;;16.48;5.78;;;;;;;;;;4901552;29;20065;-76
2021/11/26 03:55:06;;;;;;;14.68;5.85;;;;;;;;;;4901685;29;20080;-76
2021/11/26 03:57:34;;;;;;;17.45;6.68;;;;;;;;;;4888106;29;20072;-75
2021/11/26 04:00:06;;;;;;;17.07;6.60;;;;;;;;;;4882527;29;20067;-75
2021/11/26 04:02:41;;;;;;;14.85;6.97;;;;;;;;;;4898827;29;20092;-75
2021/11/26 04:05:10;;;;;;;15.50;7.95;;;;;;;;;;4902333;29;20062;-76
2021/11/26 04:07:38;;;;;;;18.05;5.55;;;;;;;;;;4885704;29;20065;-75
2021/11/26 04:10:08;;;;;;;14.75;6.75;;;;;;;;;;4883348;29;20145;-76
2021/11/26 04:12:37;;;;;;;15.63;7.00;;;;;;;;;;4882107;29;20123;-76
2021/11/26 04:15:07;;;;;;;14.68;6.93;;;;;;;;;;4883317;29;20077;-75
2021/11/26 04:17:36;;;;;;;15.75;6.30;;;;;;;;;;4901311;29;20090;-76
2021/11/26 04:20:08;;;;;;;15.93;7.05;;;;;;;;;;4902146;29;20078;-76
2021/11/26 04:22:37;;;;;;;17.30;6.47;;;;;;;;;;4880798;29;20090;-76
2021/11/26 04:25:08;;;;;;;15.27;6.23;;;;;;;;;;4897871;29;20533;-76
2021/11/26 04:27:37;;;;;;;19.48;6.55;;;;;;;;;;4902263;29;20066;-76
2021/11/26 04:30:07;;;;;;;18.25;8.25;;;;;;;;;;4880998;29;20071;-75
2021/11/26 04:32:36;;;;;;;15.45;7.13;;;;;;;;;;4884467;29;20085;-75
2021/11/26 04:35:07;;;;;;;22.90;7.50;;;;;;;;;;4900782;29;20091;-75
2021/11/26 04:37:37;;;;;;;16.67;6.63;;;;;;;;;;4900019;29;20056;-76
2021/11/26 04:40:08;;;;;;;18.70;7.40;;;;;;;;;;4896907;29;20094;-75
2021/11/26 04:42:38;;;;;;;18.48;7.45;;;;;;;;;;4901558;29;20069;-77
2021/11/26 04:45:07;;;;;;;20.30;7.40;;;;;;;;;;4901994;29;20064;-75
2021/11/26 04:47:36;;;;;;;20.95;7.03;;;;;;;;;;4898115;29;20068;-75
2021/11/26 04:50:08;;;;;;;21.30;8.33;;;;;;;;;;4900194;29;20158;-76
2021/11/26 04:52:37;;;;;;;23.35;7.90;;;;;;;;;;4899242;29;20065;-76
2021/11/26 04:55:06;;;;;;;16.45;6.82;;;;;;;;;;4901061;29;20082;-75
2021/11/26 04:57:35;;;;;;;18.38;7.63;;;;;;;;;;4901200;29;20064;-75
2021/11/26 05:00:06;;;;;;;21.25;6.63;;;;;;;;;;4897308;29;20093;-74
2021/11/26 05:02:35;;;;;;;17.67;7.50;;;;;;;;;;4868079;29;20103;-75
2021/11/26 05:05:04;;;;;;;13.75;5.90;;;;;;;;;;4896927;29;20052;-74
2021/11/26 05:07:35;;;;;;;22.40;6.53;;;;;;;;;;4899333;29;20061;-75
2021/11/26 05:10:04;;;;;;;22.30;7.22;;;;;;;;;;4901505;29;20059;-75
2021/11/26 05:12:36;;;;;;;15.98;7.30;;;;;;;;;;4904486;29;20074;-75
2021/11/26 05:15:08;;;;;;;17.50;7.87;;;;;;;;;;4910299;29;20129;-73
2021/11/26 05:17:36;;;;;;;20.67;8.52;;;;;;;;;;4884318;29;20521;-74
2021/11/26 05:20:06;;;;;;;17.00;7.15;;;;;;;;;;4895259;29;20474;-74
2021/11/26 05:22:41;;;;;;;15.00;6.70;;;;;;;;;;4870045;29;20074;-74
2021/11/26 05:25:11;;;;;;;17.30;6.93;;;;;;;;;;4889607;29;20431;-74
2021/11/26 05:27:40;;;;;;;18.10;7.67;;;;;;;;;;4896872;29;20062;-75
2021/11/26 05:30:09;;;;;;;21.08;7.18;;;;;;;;;;4886234;29;20058;-75
2021/11/26 05:32:38;;;;;;;20.85;9.00;;;;;;;;;;4880622;29;20601;-73
2021/11/26 05:35:07;;;;;;;18.15;7.47;;;;;;;;;;4903406;29;20117;-72
2021/11/26 05:37:36;;;;;;;16.83;6.57;;;;;;;;;;4894064;29;20161;-74
2021/11/26 05:40:08;;;;;;;22.87;6.93;;;;;;;;;;4881307;29;20175;-75
2021/11/26 05:42:38;;;;;;;22.05;6.22;;;;;;;;;;4908114;29;20062;-74
2021/11/26 05:45:08;;;;;;;24.35;8.07;;;;;;;;;;4913188;29;20061;-75
2021/11/26 05:47:37;;;;;;;15.10;5.63;;;;;;;;;;4911100;29;20056;-75
2021/11/26 05:50:07;;;;;;;18.50;7.90;;;;;;;;;;4886610;29;20068;-75
2021/11/26 05:52:35;;;;;;;18.57;7.90;;;;;;;;;;4912529;29;20071;-74
2021/11/26 05:55:06;;;;;;;17.50;8.02;;;;;;;;;;4885525;29;20064;-76
2021/11/26 05:57:36;;;;;;;22.50;7.72;;;;;;;;;;4905833;29;20549;-84
2021/11/26 06:00:06;;;;;;;18.45;7.45;;;;;;;;;;4886614;29;20062;-75
2021/11/26 06:02:36;;;;;;;17.67;7.47;;;;;;;;;;4907751;29;20387;-71
2021/11/26 06:05:05;;;;;;;23.67;8.07;;;;;;;;;;4898822;29;20146;-72
2021/11/26 06:07:34;;;;;;;15.95;6.45;;;;;;;;;;4891658;29;20152;-73
2021/11/26 06:10:03;;;;;;;19.38;7.75;;;;;;;;;;4890437;29;20125;-69
2021/11/26 06:12:32;;;;;;;15.77;7.32;;;;;;;;;;4877334;29;20499;-70
2021/11/26 06:15:02;;;;;;;14.40;8.32;;;;;;;;;;4885391;29;20107;-70
2021/11/26 06:17:31;;;;;;;22.33;9.20;;;;;;;;;;4906507;29;20425;-70
2021/11/26 06:20:01;;;;;;;19.70;6.70;;;;;;;;;;4866639;29;20116;-70
2021/11/26 06:22:30;;;;;;;20.58;8.23;;;;;;;;;;4902807;29;20089;-71
2021/11/26 06:25:24;;;;;;;20.10;8.25;;;;;;;;;;4886755;29;20107;-70
2021/11/26 06:27:53;;;;;;;22.65;7.88;;;;;;;;;;4895549;29;20059;-70
2021/11/26 06:30:24;;;;;;;14.37;6.43;;;;;;;;;;4887946;29;20425;-70
2021/11/26 06:32:53;;;;;;;17.63;8.98;;;;;;;;;;4886428;29;20049;-70
2021/11/26 06:35:24;;;;;;;25.88;9.48;;;;;;;;;;4904800;29;20082;-70
2021/11/26 06:37:54;;;;;;;19.20;7.85;;;;;;;;;;4908878;29;20487;-72
2021/11/26 06:40:24;;;;;;;16.95;8.20;;;;;;;;;;4909890;29;20084;-70
2021/11/26 06:42:52;;;;;;;22.87;9.17;;;;;;;;;;4895004;29;20586;-71
2021/11/26 06:45:21;;;;;;;21.98;9.38;;;;;;;;;;4900520;29;20063;-71
2021/11/26 06:47:51;;;;;;;16.88;6.53;;;;;;;;;;4881368;29;20174;-70
2021/11/26 06:50:20;;;;;;;29.23;6.95;;;;;;;;;;4876479;29;20088;-72
2021/11/26 06:52:50;;;;;;;24.08;8.00;;;;;;;;;;4877030;29;20080;-71
2021/11/26 06:55:19;;;;;;;17.10;8.20;;;;;;;;;;4871612;29;21111;-71
2021/11/26 06:57:47;;;;;;;19.88;8.20;;;;;;;;;;4856564;29;20113;-72
2021/11/26 07:00:17;;;;;;;23.15;8.98;;;;;;;;;;4871665;29;20082;-70
2021/11/26 07:02:46;;;;;;;21.23;6.90;;;;;;;;;;4872601;29;20080;-70
2021/11/26 07:05:17;;;;;;;19.30;7.55;;;;;;;;;;4874417;29;20092;-72
2021/11/26 07:07:46;;;;;;;20.80;8.63;;;;;;;;;;4874752;29;20089;-72
2021/11/26 07:10:15;;;;;;;22.52;9.35;;;;;;;;;;4876581;29;20514;-71
2021/11/26 07:12:44;;;;;;;22.38;8.15;;;;;;;;;;4882019;29;20088;-72
2021/11/26 07:15:13;;;;;;;18.52;7.38;;;;;;;;;;4894022;29;20094;-70
2021/11/26 07:17:43;;;;;;;21.33;9.35;;;;;;;;;;4880360;29;20082;-71
2021/11/26 07:20:13;;;;;;;14.43;7.80;;;;;;;;;;4877912;29;20155;-71
2021/11/26 07:22:44;;;;;;;29.17;9.18;;;;;;;;;;4883220;29;20177;-72
2021/11/26 07:25:14;;;;;;;22.05;7.70;;;;;;;;;;4868571;29;20079;-71
2021/11/26 07:27:43;;;;;;;17.98;8.52;;;;;;;;;;4881786;29;20112;-71
2021/11/26 07:30:13;;;;;;;19.30;6.97;;;;;;;;;;4878693;29;20550;-71
2021/11/26 07:32:42;;;;;;;21.77;9.03;;;;;;;;;;4888449;29;20060;-70
2021/11/26 07:35:13;;;;;;;29.05;8.80;;;;;;;;;;4893800;29;20491;-70
2021/11/26 07:37:42;;;;;;;21.83;9.40;;;;;;;;;;4863834;29;20071;-71
2021/11/26 07:40:20;;;;;;;16.90;8.50;;;;;;;;;;4908958;29;20086;-71
2021/11/26 07:42:49;;;;;;;15.57;6.72;;;;;;;;;;4879596;29;20073;-72
2021/11/26 07:45:18;;;;;;;23.67;9.57;;;;;;;;;;4911953;29;20090;-71
2021/11/26 07:47:46;;;;;;;20.40;7.30;;;;;;;;;;4907573;29;20059;-71
2021/11/26 07:50:16;;;;;;;20.35;8.98;;;;;;;;;;4900696;29;20131;-71
2021/11/26 07:52:46;;;;;;;21.90;8.40;;;;;;;;;;4900379;29;20140;-71
2021/11/26 07:55:15;;;;;;;18.63;8.30;;;;;;;;;;4883986;29;20078;-70
2021/11/26 07:57:47;;;;;;;18.90;8.50;;;;;;;;;;4901091;29;20426;-72
2021/11/26 08:00:17;;;;;;;18.88;9.05;;;;;;;;;;4893009;29;21173;-71
2021/11/26 08:02:46;;;;;;;22.25;8.80;;;;;;;;;;4882254;29;20169;-71
2021/11/26 08:05:14;;;;;;;20.20;9.30;;;;;;;;;;4872195;29;20526;-71
2021/11/26 08:07:43;;;;;;;20.55;9.27;;;;;;;;;;4881856;29;20129;-71
2021/11/26 08:10:12;;;;;;;25.87;9.27;;;;;;;;;;4857445;29;20491;-71
2021/11/26 08:12:41;;;;;;;22.70;8.40;;;;;;;;;;4886425;29;20597;-70
2021/11/26 08:15:13;;;;;;;24.17;8.90;;;;;;;;;;4868989;29;20169;-71
2021/11/26 08:17:42;;;;;;;25.23;10.15;;;;;;;;;;4884390;29;20087;-73
2021/11/26 08:20:12;;;;;;;25.05;8.30;;;;;;;;;;4872437;29;20062;-71
2021/11/26 08:22:49;;;;;;;23.77;8.43;;;;;;;;;;4874582;29;20088;-71
2021/11/26 08:25:19;;;;;;;20.55;8.68;;;;;;;;;;4870849;29;20052;-71
2021/11/26 08:27:48;;;;;;;30.17;9.50;;;;;;;;;;4874527;29;20500;-70
2021/11/26 08:30:19;;;;;;;22.60;9.50;;;;;;;;;;4875949;29;20081;-71
2021/11/26 08:32:48;;;;;;;22.52;8.23;;;;;;;;;;4872781;29;20532;-70
2021/11/26 08:35:17;;;;;;;19.47;8.10;;;;;;;;;;4884226;29;20449;-71
2021/11/26 08:38:11;;;;;;;23.30;7.65;;;;;;;;;;4873311;29;20124;-71
2021/11/26 08:40:41;;;;;;;13.13;6.80;;;;;;;;;;4874714;29;20533;-70
2021/11/26 08:43:10;;;;;;;17.70;8.85;;;;;;;;;;4876663;29;20079;-72
2021/11/26 08:45:41;;;;;;;20.77;9.27;;;;;;;;;;4873604;29;20173;-71
2021/11/26 08:48:10;;;;;;;19.50;8.80;;;;;;;;;;4873051;29;20080;-70
2021/11/26 08:50:39;;;;;;;17.98;9.30;;;;;;;;;;4878835;29;20170;-70
2021/11/26 08:53:09;;;;;;;22.55;9.80;;;;;;;;;;4878447;29;20492;-71
2021/11/26 08:55:39;;;;;;;19.83;8.50;;;;;;;;;;4862669;29;20088;-71
2021/11/26 08:58:12;;;;;;;27.63;10.70;;;;;;;;;;4859113;29;20536;-72
2021/11/26 09:00:43;;;;;;;19.93;9.23;;;;;;;;;;4875801;29;20073;-70
2021/11/26 09:03:14;;;;;;;31.95;9.88;;;;;;;;;;4876283;29;20728;-70
2021/11/26 09:05:43;;;;;;;24.50;9.80;;;;;;;;;;4873813;29;20661;-71
2021/11/26 09:08:15;;;;;;;25.45;9.43;;;;;;;;;;4872060;29;20075;-71
2021/11/26 09:10:44;;;;;;;21.50;9.27;;;;;;;;;;4878113;29;20083;-70
2021/11/26 09:13:14;;;;;;;21.47;9.53;;;;;;;;;;4902006;29;20082;-70
2021/11/26 09:16:10;;;;;;;20.45;8.30;;;;;;;;;;4883333;29;20083;-70
2021/11/26 09:19:06;;;;;;;22.75;10.10;;;;;;;;;;4876762;29;20060;-70
2021/11/26 09:21:35;;;;;;;21.05;8.95;;;;;;;;;;4871413;29;20765;-70
2021/11/26 09:24:07;;;;;;;19.60;10.27;;;;;;;;;;4886267;29;20142;-70
2021/11/26 09:26:37;;;;;;;28.97;10.23;;;;;;;;;;4877719;29;20060;-70
2021/11/26 09:29:07;;;;;;;28.63;10.77;;;;;;;;;;4872808;29;20571;-71
2021/11/26 09:31:36;;;;;;;23.25;10.32;;;;;;;;;;4886038;29;20086;-71
2021/11/26 09:34:06;;;;;;;21.27;10.18;;;;;;;;;;4883080;29;20064;-70
2021/11/26 09:39:53;;;;;;;33.43;11.37;;;;;;;;;;4872750;29;20052;-71
2021/11/26 09:42:22;;;;;;;35.53;11.75;;;;;;;;;;4880769;29;20059;-70
2021/11/26 09:44:54;;;;;;;25.05;8.63;;;;;;;;;;4865741;29;20174;-70
2021/11/26 09:47:23;;;;;;;20.50;8.38;;;;;;;;;;4873209;29;20102;-70
2021/11/26 09:49:53;;;;;;;30.10;10.50;;;;;;;;;;4877159;29;20080;-70
2021/11/26 09:52:22;;;;;;;23.10;10.10;;;;;;;;;;4869227;29;20409;-72
2021/11/26 09:54:52;;;;;;;21.45;8.10;;;;;;;;;;4855806;29;20075;-72
2021/11/26 09:57:21;;;;;;;21.65;9.82;;;;;;;;;;4867848;29;20058;-70
2021/11/26 09:59:50;;;;;;;27.00;11.65;;;;;;;;;;4877094;29;20104;-70
2021/11/26 10:02:20;;;;;;;17.23;8.95;;;;;;;;;;4884293;29;20464;-70
2021/11/26 10:04:59;;;;;;;19.37;9.97;;;;;;;;;;4884712;29;20066;-69
2021/11/26 10:07:29;;;;;;;23.05;9.25;;;;;;;;;;4904095;29;20519;-69
2021/11/26 10:10:10;;;;;;;27.00;9.65;;;;;;;;;;4896939;29;20093;-69
2021/11/26 10:12:38;;;;;;;25.88;9.18;;;;;;;;;;4887657;29;20158;-69
2021/11/26 10:15:08;;;;;;;29.90;8.80;;;;;;;;;;4900893;29;20048;-70
2021/11/26 10:17:37;;;;;;;33.63;11.23;;;;;;;;;;4888332;29;20045;-70
2021/11/26 10:20:11;;;;;;;23.30;8.27;;;;;;;;;;4875903;29;20182;-70
2021/11/26 10:22:42;;;;;;;17.02;8.23;;;;;;;;;;4876162;29;20086;-70
2021/11/26 10:25:15;;;;;;;24.33;9.57;;;;;;;;;;4855705;29;20680;-71
2021/11/26 10:27:45;;;;;;;23.15;10.90;;;;;;;;;;4877929;29;20060;-71
2021/11/26 10:30:18;;;;;;;22.67;8.20;;;;;;;;;;4879806;29;20107;-70
2021/11/26 10:32:51;;;;;;;27.75;9.25;;;;;;;;;;4876259;29;20059;-71
2021/11/26 10:35:21;;;;;;;21.45;10.98;;;;;;;;;;4879130;29;20496;-71
2021/11/26 10:37:58;;;;;;;17.98;7.82;;;;;;;;;;4882192;29;20063;-70
2021/11/26 10:40:28;;;;;;;20.42;7.85;;;;;;;;;;4878098;29;20090;-71
2021/11/26 10:42:57;;;;;;;28.27;10.47;;;;;;;;;;4861077;29;20155;-73
2021/11/26 10:45:41;;;;;;;22.05;10.07;;;;;;;;;;4885781;29;20165;-69
2021/11/26 10:48:45;;;;;;;20.67;7.75;;;;;;;;;;4881001;29;20107;-70
2021/11/26 11:00:05;;;;;;;17.85;7.50;;;;;;;;;;4866759;29;20079;-70
2021/11/26 11:02:36;;;;;;;21.75;8.43;;;;;;;;;;4876540;29;20090;-70
2021/11/26 11:05:05;;;;;;;24.65;7.85;;;;;;;;;;4880744;29;20056;-69
2021/11/26 11:07:40;;;;;;;21.85;10.73;;;;;;;;;;4882200;29;20538;-70
2021/11/26 11:10:10;;;;;;;20.73;8.43;;;;;;;;;;4882713;29;20187;-70
2021/11/26 11:12:40;;;;;;;31.70;9.93;;;;;;;;;;4871379;29;20074;-70
2021/11/26 11:15:10;;;;;;;24.73;10.43;;;;;;;;;;4874666;29;20084;-70
2021/11/26 11:17:40;;;;;;;23.65;8.38;;;;;;;;;;4881958;29;20052;-70
2021/11/26 11:20:11;;;;;;;26.75;9.57;;;;;;;;;;4879098;29;20136;-69
2021/11/26 11:22:41;;;;;;;31.10;9.17;;;;;;;;;;4880971;29;20089;-69
2021/11/26 11:25:12;;;;;;;22.48;9.18;;;;;;;;;;4910360;29;20062;-69
2021/11/26 11:27:41;;;;;;;25.70;8.23;;;;;;;;;;4905797;29;20386;-70
2021/11/26 11:30:11;;;;;;;19.73;7.75;;;;;;;;;;4908715;29;20062;-70
2021/11/26 11:32:40;;;;;;;23.20;8.00;;;;;;;;;;4892784;29;20528;-69
2021/11/26 11:35:09;;;;;;;23.27;8.90;;;;;;;;;;4902804;29;20487;-71
2021/11/26 11:37:39;;;;;;;20.15;6.88;;;;;;;;;;4898360;29;20163;-70
2021/11/26 11:40:10;;;;;;;20.63;8.38;;;;;;;;;;4885490;29;20112;-70
2021/11/26 11:42:42;;;;;;;23.67;9.27;;;;;;;;;;4896517;29;20195;-70
2021/11/26 11:45:12;;;;;;;19.27;8.32;;;;;;;;;;4886433;29;20094;-70
2021/11/26 11:47:45;;;;;;;20.10;7.43;;;;;;;;;;4890062;29;20140;-70
2021/11/26 11:50:17;;;;;;;28.27;10.77;;;;;;;;;;4891641;29;20061;-69
2021/11/26 11:52:50;;;;;;;26.70;9.77;;;;;;;;;;4883106;29;20049;-70
2021/11/26 11:55:25;;;;;;;23.50;9.30;;;;;;;;;;4895975;29;20055;-69
2021/11/26 11:57:57;;;;;;;28.48;9.55;;;;;;;;;;4909695;29;20055;-69
2021/11/26 12:00:29;;;;;;;16.73;7.73;;;;;;;;;;4891614;29;20149;-69
2021/11/26 12:03:06;;;;;;;24.58;8.25;;;;;;;;;;4891657;29;20051;-70
2021/11/26 12:05:36;;;;;;;12.35;6.07;;;;;;;;;;4896636;29;20073;-70
2021/11/26 12:08:06;;;;;;;18.20;7.50;;;;;;;;;;4866968;29;20135;-70
2021/11/26 12:10:46;;;;;;;20.50;6.57;;;;;;;;;;4912466;29;20088;-70
2021/11/26 12:13:22;;;;;;;20.53;7.83;;;;;;;;;;4893072;29;20146;-69
2021/11/26 12:16:03;;;;;;;15.63;6.32;;;;;;;;;;4891054;29;20059;-69
2021/11/26 12:18:38;;;;;;;17.98;7.40;;;;;;;;;;4888441;29;20048;-70
2021/11/26 12:21:11;;;;;;;20.98;7.75;;;;;;;;;;4869254;29;20110;-70
2021/11/26 12:23:59;;;;;;;17.08;6.97;;;;;;;;;;4897407;29;20044;-70
2021/11/26 12:26:42;;;;;;;15.47;6.40;;;;;;;;;;4888376;29;21348;-70
2021/11/26 12:29:12;;;;;;;15.35;7.45;;;;;;;;;;4911145;29;20131;-70
2021/11/26 12:31:41;;;;;;;20.38;7.28;;;;;;;;;;4912680;29;20097;-70
2021/11/26 12:34:11;;;;;;;16.45;7.30;;;;;;;;;;4895066;29;20063;-70
2021/11/26 12:37:04;;;;;;;21.88;7.75;;;;;;;;;;4883488;29;20079;-70
2021/11/26 12:39:36;;;;;;;18.77;6.93;;;;;;;;;;4898994;29;20139;-70
2021/11/26 12:42:30;;;;;;;16.88;6.18;;;;;;;;;;4896901;29;20051;-70
2021/11/26 12:45:03;;;;;;;19.00;6.32;;;;;;;;;;4900083;29;20059;-70
2021/11/26 12:47:36;;;;;;;15.07;4.85;;;;;;;;;;4883748;29;20123;-70
2021/11/26 12:52:53;;;;;;;17.37;6.33;;;;;;;;;;4884476;29;20559;-70
2021/11/26 12:55:21;;;;;;;17.52;6.95;;;;;;;;;;4882782;29;20098;-70
2021/11/26 12:57:53;;;;;;;23.90;7.78;;;;;;;;;;4900496;29;20538;-70
2021/11/26 13:00:24;;;;;;;13.38;4.43;;;;;;;;;;4901828;29;20513;-69
2021/11/26 13:03:15;;;;;;;22.75;7.05;;;;;;;;;;5033480;23;20473;-95
2021/11/26 13:05:52;;;;;;;12.73;5.23;;;;;;;;;;4866109;29;20075;-65
2021/11/26 13:08:21;;;;;;;15.63;5.88;;;;;;;;;;4882564;29;20565;-64
2021/11/26 13:10:51;;;;;;;13.52;6.10;;;;;;;;;;4852326;29;20088;-64
2021/11/26 13:13:22;;;;;;;19.83;6.30;;;;;;;;;;4861911;29;20060;-65
2021/11/26 13:15:53;;;;;;;17.63;7.57;;;;;;;;;;4843883;29;20060;-65
2021/11/26 13:18:24;;;;;;;16.33;5.10;;;;;;;;;;4878988;29;20389;-65
2021/11/26 13:20:53;;;;;;;21.52;6.75;;;;;;;;;;4863305;29;20060;-65
2021/11/26 13:23:24;;;;;;;12.75;6.22;;;;;;;;;;4868907;29;20132;-65
2021/11/26 13:25:54;;;;;;;14.85;6.32;;;;;;;;;;4870643;29;20045;-65
2021/11/26 13:28:23;;;;;;;14.65;5.85;;;;;;;;;;4859335;29;20080;-65
2021/11/26 13:31:14;;;;;;;11.73;5.60;;;;;;;;;;4864277;29;20052;-65
2021/11/26 13:33:45;;;;;;;13.32;5.82;;;;;;;;;;4866040;29;20148;-64
2021/11/26 13:36:15;;;;;;;20.98;6.32;;;;;;;;;;4868849;29;20085;-64
2021/11/26 13:38:46;;;;;;;12.68;4.45;;;;;;;;;;4843560;29;20056;-65
2021/11/26 13:41:19;;;;;;;17.02;6.63;;;;;;;;;;4842288;29;20062;-64
2021/11/26 13:43:50;;;;;;;17.10;6.17;;;;;;;;;;4857050;29;20053;-65
2021/11/26 13:46:23;;;;;;;16.15;5.72;;;;;;;;;;4839906;29;20322;-65
2021/11/26 13:48:53;;;;;;;18.77;6.82;;;;;;;;;;4843750;29;20042;-64
2021/11/26 13:51:30;;;;;;;18.98;6.75;;;;;;;;;;4859571;29;20446;-65
2021/11/26 13:54:03;;;;;;;14.85;5.75;;;;;;;;;;4856142;29;20057;-65
2021/11/26 13:56:33;;;;;;;16.17;5.90;;;;;;;;;;4872707;29;20061;-65
2021/11/26 13:59:05;;;;;;;15.85;6.00;;;;;;;;;;4861135;29;20156;-65
2021/11/26 14:01:37;;;;;;;20.25;7.68;;;;;;;;;;4872304;29;20080;-65
2021/11/26 14:04:07;;;;;;;16.55;6.18;;;;;;;;;;4861343;29;20058;-65
2021/11/26 14:06:55;;;;;;;23.42;6.60;;;;;;;;;;4865999;29;20084;-65
2021/11/26 14:09:24;;;;;;;18.07;7.17;;;;;;;;;;4848964;29;20992;-65
2021/11/26 14:11:54;;;;;;;22.58;8.45;;;;;;;;;;4844197;29;20155;-65
2021/11/26 14:14:24;;;;;;;18.08;6.55;;;;;;;;;;4850861;29;20135;-65
2021/11/26 14:16:57;;;;;;;20.00;6.22;;;;;;;;;;4867690;29;20057;-65
2021/11/26 14:19:51;;;;;;;13.45;5.63;;;;;;;;;;4870899;29;20053;-65
2021/11/26 14:22:27;;;;;;;16.43;7.20;;;;;;;;;;4855220;29;20071;-65
2021/11/26 14:25:04;;;;;;;26.33;8.20;;;;;;;;;;4842736;29;20045;-65
2021/11/26 14:27:34;;;;;;;19.60;5.95;;;;;;;;;;4880103;29;20164;-65
2021/11/26 14:30:04;;;;;;;17.77;7.13;;;;;;;;;;4869836;29;20059;-65
2021/11/26 14:32:35;;;;;;;15.77;6.00;;;;;;;;;;4879727;29;20132;-69
2021/11/26 14:35:07;;;;;;;23.77;7.87;;;;;;;;;;4861649;29;20097;-70
2021/11/26 14:37:36;;;;;;;21.08;5.93;;;;;;;;;;4883041;29;20061;-69
2021/11/26 14:40:16;;;;;;;14.27;5.38;;;;;;;;;;4843240;29;20209;-64
2021/11/26 14:42:44;;;;;;;16.60;6.30;;;;;;;;;;4853910;29;20054;-64
2021/11/26 14:45:41;;;;;;;17.38;6.35;;;;;;;;;;4826417;29;20424;-64
2021/11/26 14:48:16;;;;;;;17.87;7.10;;;;;;;;;;4839625;29;20525;-64
2021/11/26 14:50:46;;;;;;;15.30;5.43;;;;;;;;;;4844580;29;20082;-64
2021/11/26 14:53:15;;;;;;;17.95;8.38;;;;;;;;;;4858868;29;20074;-64
2021/11/26 14:55:44;;;;;;;17.30;5.50;;;;;;;;;;4857527;29;20073;-64
2021/11/26 14:58:14;;;;;;;12.48;5.65;;;;;;;;;;4864189;29;20054;-64
2021/11/26 15:00:46;;;;;;;19.77;7.23;;;;;;;;;;4861459;29;20104;-64
2021/11/26 15:03:17;;;;;;;16.15;5.57;;;;;;;;;;4847891;29;20074;-64
2021/11/26 15:05:47;;;;;;;18.00;6.32;;;;;;;;;;4861285;29;20059;-64
2021/11/26 15:08:16;;;;;;;15.35;5.70;;;;;;;;;;4846539;29;20079;-65
2021/11/26 15:10:49;;;;;;;16.90;5.38;;;;;;;;;;4845964;29;20058;-64